createdAt,value
2023-12-16T00:02:09.474Z,0.20
2023-12-16T00:04:37.106Z,0.15
2023-12-16T00:07:04.165Z,0.17
2023-12-16T00:09:30.887Z,0.11
2023-12-16T00:11:58.166Z,0.10
2023-12-16T00:14:25.208Z,0.12
2023-12-16T00:16:51.959Z,0.13
2023-12-16T00:19:18.767Z,0.14
2023-12-16T00:21:45.529Z,0.10
2023-12-16T00:24:12.234Z,0.08
2023-12-16T00:26:38.937Z,0.13
2023-12-16T00:29:05.642Z,0.09
2023-12-16T00:31:32.371Z,0.09
2023-12-16T00:33:59.232Z,0.14
2023-12-16T00:36:26.183Z,0.12
2023-12-16T00:38:52.980Z,0.13
2023-12-16T00:41:19.660Z,0.16
2023-12-16T00:43:46.472Z,0.17
2023-12-16T00:46:13.151Z,0.19
2023-12-16T00:48:40.042Z,0.22
2023-12-16T00:51:07.029Z,0.19
2023-12-16T00:53:33.685Z,0.21
2023-12-16T00:56:00.386Z,0.21
2023-12-16T00:58:27.086Z,0.19
2023-12-16T01:00:54.067Z,0.23
2023-12-16T01:03:20.910Z,0.14
2023-12-16T01:05:47.750Z,0.19
2023-12-16T01:08:14.660Z,0.24
2023-12-16T01:10:41.534Z,0.26
2023-12-16T01:13:08.242Z,0.24
2023-12-16T01:15:35.032Z,0.29
2023-12-16T01:18:01.977Z,0.21
2023-12-16T01:20:28.903Z,0.28
2023-12-16T01:22:55.644Z,0.27
2023-12-16T01:25:22.410Z,0.33
2023-12-16T01:27:49.363Z,0.29
2023-12-16T01:30:16.441Z,0.38
2023-12-16T01:32:43.317Z,0.41
2023-12-16T01:35:10.160Z,0.25
2023-12-16T01:37:37.286Z,0.37
2023-12-16T01:40:05.058Z,0.39
2023-12-16T01:42:31.762Z,0.41
2023-12-16T01:44:58.660Z,0.41
2023-12-16T01:47:25.693Z,0.37
2023-12-16T01:49:55.802Z,0.40
2023-12-16T01:52:22.788Z,0.41
2023-12-16T01:54:49.753Z,0.43
2023-12-16T01:57:16.733Z,0.48
2023-12-16T01:59:43.795Z,0.42
2023-12-16T02:02:12.050Z,0.43
2023-12-16T02:04:38.928Z,0.34
2023-12-16T02:07:06.511Z,0.37
2023-12-16T02:09:33.384Z,0.31
2023-12-16T02:12:00.100Z,0.33
2023-12-16T02:14:27.001Z,0.32
2023-12-16T02:16:53.643Z,0.32
2023-12-16T02:19:26.336Z,0.29
2023-12-16T02:21:56.168Z,0.29
2023-12-16T02:24:23.095Z,0.25
2023-12-16T02:26:49.903Z,0.28
2023-12-16T02:29:18.826Z,0.21
2023-12-16T02:31:46.105Z,0.20
2023-12-16T02:34:13.164Z,0.24
2023-12-16T02:36:40.124Z,0.20
2023-12-16T02:39:06.851Z,0.20
2023-12-16T02:41:33.694Z,0.19
2023-12-16T02:44:00.530Z,0.19
2023-12-16T02:46:27.351Z,0.22
2023-12-16T02:48:54.241Z,0.15
2023-12-16T02:51:21.364Z,0.18
2023-12-16T02:53:48.342Z,0.22
2023-12-16T02:56:15.121Z,0.16
2023-12-16T02:58:41.841Z,0.19
2023-12-16T03:01:08.741Z,0.22
2023-12-16T03:03:38.425Z,0.25
2023-12-16T03:06:06.665Z,0.26
2023-12-16T03:08:34.500Z,0.28
2023-12-16T03:11:03.053Z,0.23
2023-12-16T03:13:29.813Z,0.27
2023-12-16T03:15:56.717Z,0.32
2023-12-16T03:18:23.620Z,0.34
2023-12-16T03:20:50.971Z,0.33
2023-12-16T03:23:17.888Z,0.33
2023-12-16T03:25:44.630Z,0.39
2023-12-16T03:28:12.223Z,0.43
2023-12-16T03:30:40.863Z,0.43
2023-12-16T03:33:08.957Z,0.44
2023-12-16T03:35:36.223Z,0.43
2023-12-16T03:38:03.165Z,0.40
2023-12-16T03:40:30.074Z,0.42
2023-12-16T03:42:57.206Z,0.40
2023-12-16T03:45:24.327Z,0.39
2023-12-16T03:47:50.999Z,0.37
2023-12-16T03:50:17.725Z,0.32
2023-12-16T03:52:44.402Z,0.33
2023-12-16T03:55:11.156Z,0.30
2023-12-16T03:57:38.046Z,0.29
2023-12-16T04:00:05.811Z,0.31
2023-12-16T04:02:32.552Z,0.27
2023-12-16T04:04:59.381Z,0.24
2023-12-16T04:07:26.114Z,0.25
2023-12-16T04:09:52.974Z,0.24
2023-12-16T04:12:19.746Z,0.23
2023-12-16T04:14:46.477Z,0.20
2023-12-16T04:17:13.258Z,0.22
2023-12-16T04:19:40.163Z,0.21
2023-12-16T04:22:07.059Z,0.22
2023-12-16T04:24:33.842Z,0.25
2023-12-16T04:27:00.574Z,0.30
2023-12-16T04:29:27.242Z,0.28
2023-12-16T04:31:54.012Z,0.26
2023-12-16T04:34:20.810Z,0.24
2023-12-16T04:36:47.567Z,0.29
2023-12-16T04:39:14.256Z,0.32
2023-12-16T04:41:41.117Z,0.35
2023-12-16T04:44:07.930Z,0.29
2023-12-16T04:46:34.787Z,0.32
2023-12-16T04:49:01.595Z,0.27
2023-12-16T04:51:28.591Z,0.27
2023-12-16T04:53:56.442Z,0.26
2023-12-16T04:56:23.591Z,0.22
2023-12-16T04:58:50.366Z,0.23
2023-12-16T05:01:17.530Z,0.23
2023-12-16T05:03:44.358Z,0.21
2023-12-16T05:06:11.226Z,0.22
2023-12-16T05:08:37.968Z,0.24
2023-12-16T05:11:04.887Z,0.25
2023-12-16T05:13:31.674Z,0.27
2023-12-16T05:15:58.367Z,0.26
2023-12-16T05:18:25.391Z,0.24
2023-12-16T05:20:52.142Z,0.23
2023-12-16T05:23:18.828Z,0.24
2023-12-16T05:25:45.556Z,0.21
2023-12-16T05:28:12.261Z,0.22
2023-12-16T05:30:39.226Z,0.20
2023-12-16T05:33:06.060Z,0.16
2023-12-16T05:35:33.489Z,0.10
2023-12-16T05:38:00.324Z,0.09
2023-12-16T05:40:27.175Z,0.13
2023-12-16T05:42:53.954Z,0.14
2023-12-16T05:45:20.718Z,0.09
2023-12-16T05:47:47.426Z,0.09
2023-12-16T05:50:14.299Z,0.07
2023-12-16T05:52:41.081Z,0.09
2023-12-16T05:55:08.373Z,0.04
2023-12-16T05:57:35.092Z,0.06
2023-12-16T06:00:01.827Z,0.05
2023-12-16T06:02:28.529Z,0.09
2023-12-16T06:04:55.249Z,0.04
2023-12-16T06:07:22.046Z,0.06
2023-12-16T06:09:48.923Z,0.07
2023-12-16T06:12:15.689Z,0.09
2023-12-16T06:14:42.337Z,0.09
2023-12-16T06:17:09.178Z,0.14
2023-12-16T06:19:35.983Z,0.06
2023-12-16T06:22:02.833Z,-0.15
2023-12-16T06:24:29.633Z,-0.29
2023-12-16T06:26:56.515Z,-0.30
2023-12-16T06:29:23.160Z,-0.35
2023-12-16T06:31:49.861Z,-0.32
2023-12-16T06:34:16.830Z,-0.39
2023-12-16T06:36:43.755Z,-0.24
2023-12-16T06:39:10.464Z,-0.28
2023-12-16T06:41:37.144Z,-0.38
2023-12-16T06:44:03.975Z,-0.25
2023-12-16T06:46:30.895Z,-0.25
2023-12-16T06:48:58.230Z,-0.24
2023-12-16T06:51:26.312Z,0.02
2023-12-16T06:53:53.069Z,0.22
2023-12-16T06:56:19.812Z,0.47
2023-12-16T06:58:46.536Z,1.05
2023-12-16T07:01:13.424Z,1.74
2023-12-16T07:03:40.320Z,2.08
2023-12-16T07:06:07.864Z,2.50
2023-12-16T07:08:34.654Z,2.65
2023-12-16T07:11:03.304Z,2.75
2023-12-16T07:13:30.142Z,3.50
2023-12-16T07:15:56.956Z,4.67
2023-12-16T07:18:23.728Z,5.82
2023-12-16T07:20:50.550Z,6.34
2023-12-16T07:23:17.290Z,6.53
2023-12-16T07:25:44.152Z,7.32
2023-12-16T07:28:11.082Z,7.73
2023-12-16T07:30:37.960Z,8.24
2023-12-16T07:33:04.882Z,8.98
2023-12-16T07:35:31.682Z,9.88
2023-12-16T07:37:58.368Z,11.02
2023-12-16T07:40:25.112Z,12.12
2023-12-16T07:42:51.925Z,9.72
2023-12-16T07:45:18.844Z,8.17
2023-12-16T07:47:46.047Z,8.13
2023-12-16T07:50:13.114Z,7.65
2023-12-16T07:52:39.806Z,7.13
2023-12-16T07:55:06.807Z,7.37
2023-12-16T07:57:33.552Z,7.31
2023-12-16T08:00:00.250Z,7.15
2023-12-16T08:02:27.123Z,9.39
2023-12-16T08:04:53.788Z,12.50
2023-12-16T08:07:21.690Z,14.35
2023-12-16T08:09:48.410Z,14.86
2023-12-16T08:12:15.289Z,14.33
2023-12-16T08:14:42.136Z,14.71
2023-12-16T08:17:08.910Z,14.88
2023-12-16T08:19:35.708Z,14.75
2023-12-16T08:22:02.783Z,13.87
2023-12-16T08:24:29.651Z,11.53
2023-12-16T08:26:56.401Z,12.29
2023-12-16T08:29:23.205Z,13.15
2023-12-16T08:31:49.919Z,13.98
2023-12-16T08:34:16.822Z,13.82
2023-12-16T08:36:43.619Z,13.57
2023-12-16T08:39:10.383Z,15.03
2023-12-16T08:41:37.059Z,14.65
2023-12-16T08:44:03.873Z,14.36
2023-12-16T08:46:30.619Z,14.28
2023-12-16T08:48:57.544Z,15.10
2023-12-16T08:51:24.620Z,15.65
2023-12-16T08:53:52.096Z,15.50
2023-12-16T08:56:18.888Z,14.03
2023-12-16T08:58:48.282Z,14.31
2023-12-16T09:01:15.227Z,12.86
2023-12-16T09:03:45.282Z,13.65
2023-12-16T09:06:12.166Z,13.73
2023-12-16T09:08:39.163Z,14.29
2023-12-16T09:11:06.094Z,14.85
2023-12-16T09:13:33.333Z,14.48
2023-12-16T09:16:00.319Z,12.43
2023-12-16T09:18:27.096Z,13.06
2023-12-16T09:20:53.936Z,16.24
2023-12-16T09:23:20.643Z,14.43
2023-12-16T09:25:47.430Z,13.38
2023-12-16T09:28:14.260Z,14.66
2023-12-16T09:30:41.342Z,14.83
2023-12-16T09:33:08.149Z,12.81
2023-12-16T09:35:35.083Z,12.74
2023-12-16T09:38:01.778Z,12.62
2023-12-16T09:40:28.751Z,12.00
2023-12-16T09:43:00.491Z,11.57
2023-12-16T09:45:27.493Z,12.37
2023-12-16T09:47:54.286Z,11.92
2023-12-16T09:50:20.994Z,11.74
2023-12-16T09:52:47.752Z,10.99
2023-12-16T09:55:14.758Z,10.16
2023-12-16T09:57:43.469Z,10.83
2023-12-16T10:00:10.803Z,11.40
2023-12-16T10:02:38.774Z,11.47
2023-12-16T10:05:07.414Z,10.99
2023-12-16T10:07:34.253Z,10.41
2023-12-16T10:10:01.109Z,9.67
2023-12-16T10:12:33.876Z,9.78
2023-12-16T10:15:00.787Z,9.40
2023-12-16T10:17:27.513Z,11.16
2023-12-16T10:19:54.430Z,9.54
2023-12-16T10:22:22.025Z,9.95
2023-12-16T10:24:48.888Z,10.50
2023-12-16T10:27:16.348Z,11.82
2023-12-16T10:29:53.920Z,10.47
2023-12-16T10:32:29.908Z,11.65
2023-12-16T10:34:56.685Z,12.21
2023-12-16T10:37:23.360Z,11.51
2023-12-16T10:39:50.186Z,10.91
2023-12-16T10:42:16.844Z,11.38
2023-12-16T10:44:43.593Z,12.82
2023-12-16T10:47:12.552Z,11.24
2023-12-16T10:49:45.064Z,11.69
2023-12-16T10:52:13.785Z,10.08
2023-12-16T10:54:42.163Z,10.18
2023-12-16T10:57:25.524Z,11.12
2023-12-16T11:00:17.931Z,11.22
2023-12-16T11:02:50.364Z,10.41
2023-12-16T11:05:43.092Z,9.79
2023-12-16T11:08:10.175Z,11.12
2023-12-16T11:10:37.248Z,11.55
2023-12-16T11:13:05.378Z,11.33
2023-12-16T11:15:34.199Z,12.67
2023-12-16T11:18:20.838Z,12.99
2023-12-16T11:20:53.113Z,12.60
2023-12-16T11:23:20.348Z,14.80
2023-12-16T11:25:48.971Z,17.03
2023-12-16T11:28:15.835Z,20.98
2023-12-16T11:30:42.831Z,22.56
2023-12-16T11:33:09.773Z,21.67
2023-12-16T11:35:36.640Z,24.56
2023-12-16T11:38:04.210Z,24.06
2023-12-16T11:40:46.449Z,25.34
2023-12-16T11:43:13.721Z,22.17
2023-12-16T11:45:42.985Z,15.77
2023-12-16T11:48:12.527Z,13.50
2023-12-16T11:50:46.463Z,12.78
2023-12-16T11:53:15.395Z,11.53
2023-12-16T11:55:42.570Z,10.86
2023-12-16T11:58:09.340Z,10.43
2023-12-16T12:00:36.388Z,9.90
2023-12-16T12:03:06.027Z,9.53
2023-12-16T12:05:35.194Z,8.94
2023-12-16T12:08:02.383Z,8.88
2023-12-16T12:10:29.204Z,8.51
2023-12-16T12:12:57.348Z,8.04
2023-12-16T12:15:24.056Z,8.04
2023-12-16T12:17:51.132Z,7.79
2023-12-16T12:20:19.254Z,7.64
2023-12-16T12:22:46.448Z,7.75
2023-12-16T12:27:49.693Z,7.39
2023-12-16T12:30:17.738Z,7.18
2023-12-16T12:32:44.717Z,7.18
2023-12-16T12:35:11.610Z,7.36
2023-12-16T12:37:40.243Z,7.22
2023-12-16T12:40:19.779Z,7.20
2023-12-16T12:42:49.504Z,7.09
2023-12-16T12:45:26.559Z,6.89
2023-12-16T12:48:09.014Z,6.88
2023-12-16T12:50:36.036Z,6.63
2023-12-16T12:53:23.087Z,6.72
2023-12-16T12:55:52.298Z,6.77
2023-12-16T12:58:23.136Z,6.65
2023-12-16T13:00:54.844Z,6.60
2023-12-16T13:03:21.730Z,6.54
2023-12-16T13:05:48.865Z,6.33
2023-12-16T13:08:15.763Z,6.33
2023-12-16T13:10:42.618Z,6.40
2023-12-16T13:13:09.543Z,6.41
2023-12-16T13:15:53.254Z,6.22
2023-12-16T13:18:23.600Z,6.22
2023-12-16T13:20:50.700Z,6.26
2023-12-16T13:23:17.777Z,6.23
2023-12-16T13:25:44.529Z,6.15
2023-12-16T13:28:11.418Z,6.20
2023-12-16T13:30:38.193Z,6.14
2023-12-16T13:33:05.254Z,6.17
2023-12-16T13:35:32.078Z,6.06
2023-12-16T13:37:59.369Z,6.05
2023-12-16T13:40:26.065Z,5.91
2023-12-16T13:42:52.800Z,6.04
2023-12-16T13:45:19.633Z,5.90
2023-12-16T13:47:46.580Z,5.89
2023-12-16T13:50:13.678Z,5.84
2023-12-16T13:52:40.384Z,5.78
2023-12-16T13:55:07.453Z,5.68
2023-12-16T13:57:34.256Z,5.77
2023-12-16T14:00:01.202Z,5.61
2023-12-16T14:02:28.224Z,5.67
2023-12-16T14:04:54.891Z,5.57
2023-12-16T14:07:21.655Z,5.49
2023-12-16T14:09:48.508Z,5.32
2023-12-16T14:12:15.345Z,5.34
2023-12-16T14:14:42.024Z,5.19
2023-12-16T14:17:08.939Z,5.10
2023-12-16T14:19:37.669Z,5.10
2023-12-16T14:22:04.888Z,5.08
2023-12-16T14:24:31.554Z,5.12
2023-12-16T14:26:58.450Z,5.04
2023-12-16T14:29:25.372Z,4.89
2023-12-16T14:31:52.399Z,4.83
2023-12-16T14:34:19.418Z,4.79
2023-12-16T14:36:46.417Z,4.70
2023-12-16T14:39:13.297Z,4.54
2023-12-16T14:41:41.133Z,4.35
2023-12-16T14:44:08.397Z,4.43
2023-12-16T14:46:35.074Z,4.33
2023-12-16T14:49:01.902Z,4.29
2023-12-16T14:51:28.717Z,4.27
2023-12-16T14:53:55.615Z,4.00
2023-12-16T14:56:22.833Z,3.85
2023-12-16T14:58:49.809Z,3.90
2023-12-16T15:01:23.635Z,3.86
2023-12-16T15:03:50.437Z,3.82
2023-12-16T15:06:25.563Z,3.81
2023-12-16T15:08:56.606Z,3.60
2023-12-16T15:11:23.640Z,3.61
2023-12-16T15:13:50.461Z,3.53
2023-12-16T15:16:20.370Z,3.41
2023-12-16T15:18:48.580Z,3.25
2023-12-16T15:21:15.965Z,3.36
2023-12-16T15:23:42.734Z,3.35
2023-12-16T15:26:09.565Z,3.36
2023-12-16T15:28:36.384Z,3.26
2023-12-16T15:31:03.272Z,3.15
2023-12-16T15:33:30.504Z,3.11
2023-12-16T15:35:57.498Z,3.10
2023-12-16T15:38:24.445Z,3.02
2023-12-16T15:40:51.168Z,2.99
2023-12-16T15:43:18.000Z,2.97
2023-12-16T15:45:44.760Z,2.86
2023-12-16T15:48:11.643Z,2.80
2023-12-16T15:50:39.695Z,2.85
2023-12-16T15:53:06.660Z,2.76
2023-12-16T15:55:33.450Z,2.67
2023-12-16T15:58:00.296Z,2.58
2023-12-16T16:00:27.042Z,2.49
2023-12-16T16:02:53.771Z,2.44
2023-12-16T16:05:22.273Z,2.36
2023-12-16T16:07:49.942Z,2.27
2023-12-16T16:10:16.961Z,2.23
2023-12-16T16:12:43.851Z,2.03
2023-12-16T16:15:17.259Z,2.01
2023-12-16T16:17:46.916Z,1.92
2023-12-16T16:20:14.453Z,1.91
2023-12-16T16:22:41.284Z,1.85
2023-12-16T16:25:10.413Z,1.74
2023-12-16T16:27:39.024Z,1.77
2023-12-16T16:30:06.779Z,1.93
2023-12-16T16:32:33.948Z,1.84
2023-12-16T16:35:00.856Z,1.73
2023-12-16T16:37:31.189Z,1.84
2023-12-16T16:39:59.080Z,1.93
2023-12-16T16:42:25.902Z,1.92
2023-12-16T16:44:52.563Z,1.85
2023-12-16T16:47:19.329Z,1.83
2023-12-16T16:49:46.175Z,1.80
2023-12-16T16:52:13.288Z,1.86
2023-12-16T16:54:40.016Z,1.85
2023-12-16T16:57:06.664Z,1.84
2023-12-16T16:59:33.495Z,1.65
2023-12-16T17:02:00.359Z,1.60
2023-12-16T17:04:27.245Z,1.50
2023-12-16T17:06:54.076Z,1.53
2023-12-16T17:09:20.988Z,1.54
2023-12-16T17:11:47.708Z,1.49
2023-12-16T17:14:14.373Z,1.49
2023-12-16T17:16:42.311Z,1.38
2023-12-16T17:19:10.689Z,1.48
2023-12-16T17:21:37.808Z,1.34
2023-12-16T17:24:05.199Z,1.34
2023-12-16T17:26:31.949Z,1.32
2023-12-16T17:28:58.636Z,1.24
2023-12-16T17:31:25.296Z,1.25
2023-12-16T17:33:52.222Z,1.20
2023-12-16T17:36:18.897Z,1.20
2023-12-16T17:38:45.742Z,1.28
2023-12-16T17:41:12.549Z,1.21
2023-12-16T17:43:39.244Z,1.32
2023-12-16T17:46:06.007Z,1.19
2023-12-16T17:48:32.748Z,1.12
2023-12-16T17:50:59.787Z,1.15
2023-12-16T17:53:26.544Z,1.04
2023-12-16T17:55:53.400Z,1.07
2023-12-16T17:58:20.132Z,1.14
2023-12-16T18:00:47.162Z,1.09
2023-12-16T18:03:14.038Z,0.99
2023-12-16T18:05:41.112Z,0.96
2023-12-16T18:08:08.320Z,0.95
2023-12-16T18:10:35.510Z,0.82
2023-12-16T18:13:02.206Z,0.86
2023-12-16T18:15:28.928Z,0.83
2023-12-16T18:17:55.745Z,0.86
2023-12-16T18:20:22.524Z,0.88
2023-12-16T18:22:49.196Z,0.87
2023-12-16T18:25:17.102Z,0.89
2023-12-16T18:27:44.004Z,0.79
2023-12-16T18:30:11.554Z,0.81
2023-12-16T18:32:38.554Z,0.77
2023-12-16T18:35:05.685Z,0.84
2023-12-16T18:37:32.455Z,0.76
2023-12-16T18:40:00.925Z,0.72
2023-12-16T18:42:28.421Z,0.79
2023-12-16T18:44:55.130Z,0.81
2023-12-16T18:47:21.866Z,0.78
2023-12-16T18:49:48.659Z,0.73
2023-12-16T18:52:15.384Z,0.84
2023-12-16T18:54:42.081Z,0.77
2023-12-16T18:57:08.912Z,0.68
2023-12-16T18:59:35.637Z,0.61
2023-12-16T19:02:02.374Z,0.57
2023-12-16T19:04:29.467Z,0.61
2023-12-16T19:06:56.341Z,0.57
2023-12-16T19:09:23.320Z,0.47
2023-12-16T19:11:50.139Z,0.54
2023-12-16T19:14:16.913Z,0.47
2023-12-16T19:16:43.721Z,0.48
2023-12-16T19:19:10.817Z,0.42
2023-12-16T19:21:37.651Z,0.50
2023-12-16T19:24:04.691Z,0.49
2023-12-16T19:26:31.501Z,0.51
2023-12-16T19:28:58.252Z,0.50
2023-12-16T19:31:24.915Z,0.49
2023-12-16T19:33:51.922Z,0.48
2023-12-16T19:36:18.776Z,0.48
2023-12-16T19:38:45.522Z,0.40
2023-12-16T19:41:12.215Z,0.52
2023-12-16T19:43:38.899Z,0.50
2023-12-16T19:46:05.708Z,0.43
2023-12-16T19:48:32.672Z,0.30
2023-12-16T19:50:59.733Z,0.39
2023-12-16T19:53:26.621Z,0.34
2023-12-16T19:55:53.371Z,0.37
2023-12-16T19:58:20.108Z,0.43
2023-12-16T20:00:46.806Z,0.39
2023-12-16T20:03:13.661Z,0.37
2023-12-16T20:05:40.500Z,0.36
2023-12-16T20:08:07.400Z,0.26
2023-12-16T20:10:34.264Z,0.32
2023-12-16T20:13:00.905Z,0.29
2023-12-16T20:15:27.680Z,0.32
2023-12-16T20:17:54.665Z,0.31
2023-12-16T20:20:21.643Z,0.43
2023-12-16T20:22:48.323Z,0.50
2023-12-16T20:25:15.262Z,0.50
2023-12-16T20:27:42.327Z,0.59
2023-12-16T20:30:09.456Z,0.63
2023-12-16T20:32:37.101Z,0.66
2023-12-16T20:35:04.230Z,0.71
2023-12-16T20:37:30.931Z,0.70
2023-12-16T20:39:57.574Z,0.65
2023-12-16T20:42:24.684Z,0.67
2023-12-16T20:44:51.480Z,0.65
2023-12-16T20:47:18.355Z,0.65
2023-12-16T20:49:45.135Z,0.66
2023-12-16T20:52:12.032Z,0.72
2023-12-16T20:54:38.665Z,0.76
2023-12-16T20:57:05.531Z,0.78
2023-12-16T20:59:32.212Z,0.80
2023-12-16T21:01:59.044Z,0.84
2023-12-16T21:04:25.788Z,0.82
2023-12-16T21:06:52.778Z,0.85
2023-12-16T21:09:19.632Z,0.88
2023-12-16T21:11:46.651Z,0.86
2023-12-16T21:14:13.424Z,0.90
2023-12-16T21:16:40.109Z,0.90
2023-12-16T21:19:06.902Z,0.89
2023-12-16T21:21:33.585Z,0.83
2023-12-16T21:24:00.376Z,0.85
2023-12-16T21:26:27.213Z,0.81
2023-12-16T21:28:53.975Z,0.84
2023-12-16T21:31:20.764Z,0.84
2023-12-16T21:33:47.772Z,0.76
2023-12-16T21:36:14.629Z,0.73
2023-12-16T21:38:41.788Z,0.67
2023-12-16T21:41:08.740Z,0.61
2023-12-16T21:43:35.619Z,0.65
2023-12-16T21:46:02.343Z,0.56
2023-12-16T21:48:29.180Z,0.55
2023-12-16T21:50:56.285Z,0.55
2023-12-16T21:53:23.141Z,0.57
2023-12-16T21:55:49.835Z,0.56
2023-12-16T21:58:16.721Z,0.54
2023-12-16T22:00:43.547Z,0.49
2023-12-16T22:03:10.288Z,0.51
2023-12-16T22:05:37.349Z,0.51
2023-12-16T22:08:06.688Z,0.52
2023-12-16T22:10:34.389Z,0.60
2023-12-16T22:13:01.060Z,0.61
2023-12-16T22:15:27.909Z,0.63
2023-12-16T22:17:54.843Z,0.60
2023-12-16T22:20:21.627Z,0.55
2023-12-16T22:22:48.370Z,0.54
2023-12-16T22:25:15.159Z,0.52
2023-12-16T22:27:42.016Z,0.46
2023-12-16T22:30:09.325Z,0.47
2023-12-16T22:32:36.036Z,0.43
2023-12-16T22:35:02.850Z,0.44
2023-12-16T22:37:29.597Z,0.47
2023-12-16T22:39:56.366Z,0.44
2023-12-16T22:42:23.194Z,0.42
2023-12-16T22:44:50.080Z,0.42
2023-12-16T22:47:16.848Z,0.44
2023-12-16T22:49:43.833Z,0.39
2023-12-16T22:52:10.993Z,0.32
2023-12-16T22:54:37.712Z,0.32
2023-12-16T22:57:04.906Z,0.32
2023-12-16T22:59:31.750Z,0.32
2023-12-16T23:01:58.506Z,0.29
2023-12-16T23:04:25.240Z,0.21
2023-12-16T23:06:51.934Z,0.17
2023-12-16T23:09:18.847Z,0.27
2023-12-16T23:11:45.784Z,0.32
2023-12-16T23:14:12.624Z,0.25
2023-12-16T23:16:39.440Z,0.25
2023-12-16T23:19:06.280Z,0.18
2023-12-16T23:21:33.033Z,0.26
2023-12-16T23:24:00.279Z,0.21
2023-12-16T23:26:27.227Z,0.21
2023-12-16T23:28:53.981Z,0.17
2023-12-16T23:31:20.835Z,0.15
2023-12-16T23:33:47.740Z,0.19
2023-12-16T23:36:14.490Z,0.22
2023-12-16T23:38:41.445Z,0.31
2023-12-16T23:41:15.095Z,0.27
2023-12-16T23:43:41.854Z,0.29
2023-12-16T23:46:12.737Z,0.25
2023-12-16T23:48:41.273Z,0.28
2023-12-16T23:51:08.181Z,0.34
2023-12-16T23:53:35.652Z,0.35
2023-12-16T23:56:03.033Z,0.36
2023-12-16T23:58:29.693Z,0.36
